Easton, Kansas
Current Conditions -  °F | °C
As of 9:53 AM on Friday 28 Nov 2014 (Local Time) from KMCI Reporting Station
Scattered Clouds Scattered Clouds  
Wind Chill: 38°   Ceiling: Unl
Heat Index: 45°   Visibility: 10mi
Dew Point: 28°   Wind: 17mph
Humidity: 52%   Direction: 210°SSW
Pressure: 29.95"   Gusts: NA
Location:  39.34°N, 95.12°W
Report Text: KMCI 281553Z 21015KT 10SM SCT250 07/M02 A2995 RMK AO2 SLP146 T00721022
Loading
Personal Weather Stations






























Interactive Weather Map New forecast layout! Learn more

10-Day Weather Forecast

Advertisements
Track Severe Weather on mobile